createdAt,value
2023-02-25T00:02:12.049Z,10.43
2023-02-25T00:04:33.297Z,12.27
2023-02-25T00:06:54.358Z,10.37
2023-02-25T00:09:15.485Z,12.47
2023-02-25T00:11:37.280Z,12.97
2023-02-25T00:13:58.547Z,12.53
2023-02-25T00:16:21.401Z,13.00
2023-02-25T00:18:46.755Z,10.60
2023-02-25T00:21:09.474Z,10.50
2023-02-25T00:23:30.520Z,11.33
2023-02-25T00:25:58.702Z,14.30
2023-02-25T00:28:19.955Z,10.23
2023-02-25T00:30:42.559Z,12.17
2023-02-25T00:33:05.453Z,12.23
2023-02-25T00:35:28.250Z,13.07
2023-02-25T00:37:50.962Z,11.17
2023-02-25T00:40:15.122Z,12.60
2023-02-25T00:42:36.437Z,12.83
2023-02-25T00:44:57.648Z,14.40
2023-02-25T00:47:20.060Z,13.77
2023-02-25T00:49:41.402Z,12.47
2023-02-25T00:52:03.944Z,12.13
2023-02-25T00:54:25.273Z,11.97
2023-02-25T00:56:46.489Z,11.30
2023-02-25T00:59:07.787Z,10.27
2023-02-25T01:01:30.267Z,11.20
2023-02-25T01:03:52.520Z,11.43
2023-02-25T01:06:13.966Z,11.87
2023-02-25T01:08:36.591Z,11.00
2023-02-25T01:10:57.529Z,13.50
2023-02-25T01:13:18.715Z,13.63
2023-02-25T01:15:39.948Z,11.47
2023-02-25T01:18:01.189Z,11.63
2023-02-25T01:20:24.148Z,13.23
2023-02-25T01:22:45.093Z,12.60
2023-02-25T01:25:08.348Z,10.83
2023-02-25T01:27:29.823Z,14.77
2023-02-25T01:29:50.958Z,14.47
2023-02-25T01:32:13.999Z,13.07
2023-02-25T01:34:35.914Z,14.63
2023-02-25T01:36:57.112Z,15.07
2023-02-25T01:39:22.825Z,14.43
2023-02-25T01:41:48.676Z,13.53
2023-02-25T01:44:12.042Z,12.77
2023-02-25T01:46:33.302Z,11.37
2023-02-25T01:48:54.305Z,14.43
2023-02-25T01:51:15.428Z,13.60
2023-02-25T01:53:39.734Z,12.67
2023-02-25T01:56:01.747Z,11.60
2023-02-25T01:58:24.557Z,13.50
2023-02-25T02:00:46.160Z,13.33
2023-02-25T02:03:16.019Z,14.47
2023-02-25T02:05:43.485Z,15.67
2023-02-25T02:08:05.647Z,12.73
2023-02-25T02:10:26.767Z,11.80
2023-02-25T02:12:48.354Z,9.90
2023-02-25T02:15:13.723Z,8.30
2023-02-25T02:17:37.986Z,9.90
2023-02-25T02:20:14.153Z,9.00
2023-02-25T02:22:40.909Z,9.77
2023-02-25T02:25:35.476Z,13.63
2023-02-25T02:28:16.561Z,8.23
2023-02-25T02:30:42.791Z,7.30
2023-02-25T02:33:10.150Z,8.67
2023-02-25T02:35:36.880Z,10.83
2023-02-25T02:38:08.832Z,7.07
2023-02-25T02:40:36.306Z,7.00
2023-02-25T02:43:05.960Z,8.73
2023-02-25T02:45:30.572Z,7.20
2023-02-25T02:47:54.836Z,7.23
2023-02-25T02:50:19.603Z,7.03
2023-02-25T02:52:43.069Z,5.57
2023-02-25T02:55:06.334Z,5.43
2023-02-25T02:57:28.655Z,5.97
2023-02-25T02:59:52.962Z,5.23
2023-02-25T03:02:17.951Z,4.70
2023-02-25T03:04:40.330Z,6.60
2023-02-25T03:07:05.180Z,5.47
2023-02-25T03:09:27.587Z,6.23
2023-02-25T03:11:48.624Z,6.17
2023-02-25T03:14:10.015Z,7.20
2023-02-25T03:16:35.887Z,5.33
2023-02-25T03:18:59.806Z,5.37
2023-02-25T03:21:22.654Z,6.37
2023-02-25T03:23:47.003Z,8.00
2023-02-25T03:26:12.622Z,9.17
2023-02-25T03:28:35.181Z,7.33
2023-02-25T03:31:00.040Z,6.37
2023-02-25T03:33:25.640Z,6.40
2023-02-25T03:35:48.453Z,5.80
2023-02-25T03:38:13.649Z,4.30
2023-02-25T03:40:37.159Z,6.87
2023-02-25T03:43:01.468Z,6.30
2023-02-25T03:45:22.683Z,4.53
2023-02-25T03:47:44.376Z,5.20
2023-02-25T03:50:09.497Z,5.67
2023-02-25T03:52:30.862Z,7.67
2023-02-25T03:54:52.609Z,6.10
2023-02-25T03:57:14.922Z,6.33
2023-02-25T03:59:36.269Z,7.97
2023-02-25T04:01:58.884Z,8.67
2023-02-25T04:04:19.751Z,6.53
2023-02-25T04:06:40.926Z,7.53
2023-02-25T04:09:01.937Z,7.80
2023-02-25T04:11:23.185Z,7.00
2023-02-25T04:13:45.707Z,5.67
2023-02-25T04:16:08.487Z,9.47
2023-02-25T04:18:29.870Z,8.53
2023-02-25T04:20:52.137Z,5.47
2023-02-25T04:23:14.408Z,6.20
2023-02-25T04:25:37.389Z,7.73
2023-02-25T04:27:58.430Z,9.30
2023-02-25T04:30:21.283Z,5.13
2023-02-25T04:32:42.692Z,6.17
2023-02-25T04:35:04.030Z,8.13
2023-02-25T04:37:25.209Z,5.73
2023-02-25T04:39:46.582Z,5.20
2023-02-25T04:42:07.856Z,6.13
2023-02-25T04:44:29.026Z,3.87
2023-02-25T04:46:52.121Z,4.70
2023-02-25T04:49:13.572Z,4.33
2023-02-25T04:51:35.011Z,6.00
2023-02-25T04:53:56.263Z,6.77
2023-02-25T04:56:17.948Z,5.70
2023-02-25T04:58:39.793Z,4.27
2023-02-25T05:01:01.224Z,2.57
2023-02-25T05:03:25.644Z,5.33
2023-02-25T05:05:46.803Z,2.87
2023-02-25T05:08:08.068Z,5.17
2023-02-25T05:10:29.379Z,5.03
2023-02-25T05:12:50.704Z,3.77
2023-02-25T05:15:12.467Z,5.27
2023-02-25T05:17:34.007Z,3.80
2023-02-25T05:19:58.510Z,6.17
2023-02-25T05:22:20.828Z,2.67
2023-02-25T05:24:42.119Z,6.30
2023-02-25T05:27:08.631Z,3.97
2023-02-25T05:29:29.658Z,4.47
2023-02-25T05:31:52.323Z,5.47
2023-02-25T05:34:13.575Z,6.27
2023-02-25T05:36:36.131Z,3.60
2023-02-25T05:39:02.754Z,4.97
2023-02-25T05:41:24.160Z,4.80
2023-02-25T05:43:45.969Z,13.47
2023-02-25T05:46:12.136Z,4.97
2023-02-25T05:48:33.423Z,3.87
2023-02-25T05:51:00.806Z,5.93
2023-02-25T05:53:23.121Z,2.70
2023-02-25T05:55:44.838Z,4.47
2023-02-25T05:58:06.118Z,3.03
2023-02-25T06:00:28.597Z,5.40
2023-02-25T06:02:49.738Z,3.90
2023-02-25T06:05:10.922Z,2.50
2023-02-25T06:07:33.433Z,3.20
2023-02-25T06:09:59.997Z,4.20
2023-02-25T06:12:20.899Z,3.83
2023-02-25T06:14:42.165Z,2.83
2023-02-25T06:17:03.749Z,3.77
2023-02-25T06:19:26.261Z,4.40
2023-02-25T06:21:47.200Z,3.10
2023-02-25T06:24:08.777Z,3.43
2023-02-25T06:26:31.201Z,2.60
2023-02-25T06:28:52.272Z,4.87
2023-02-25T06:31:15.381Z,8.20
2023-02-25T06:33:36.646Z,2.77
2023-02-25T06:35:58.887Z,3.87
2023-02-25T06:38:20.313Z,2.60
2023-02-25T06:40:41.670Z,3.67
2023-02-25T06:43:04.401Z,5.97
2023-02-25T06:45:25.808Z,3.70
2023-02-25T06:47:47.009Z,4.90
2023-02-25T06:50:09.129Z,3.40
2023-02-25T06:52:30.301Z,7.10
2023-02-25T06:54:51.487Z,3.13
2023-02-25T06:57:12.694Z,4.37
2023-02-25T06:59:35.910Z,5.10
2023-02-25T07:01:57.021Z,5.67
2023-02-25T07:04:19.495Z,4.57
2023-02-25T07:06:40.441Z,3.83
2023-02-25T07:09:01.459Z,2.90
2023-02-25T07:11:30.563Z,2.60
2023-02-25T07:13:51.658Z,5.23
2023-02-25T07:16:14.846Z,4.53
2023-02-25T07:18:36.027Z,3.03
2023-02-25T07:20:58.221Z,4.47
2023-02-25T07:23:19.443Z,4.70
2023-02-25T07:25:40.784Z,5.10
2023-02-25T07:28:02.084Z,4.53
2023-02-25T07:30:23.369Z,3.60
2023-02-25T07:32:46.062Z,4.77
2023-02-25T07:35:08.160Z,5.17
2023-02-25T07:37:29.292Z,6.23
2023-02-25T07:39:50.594Z,2.93
2023-02-25T07:42:11.922Z,4.80
2023-02-25T07:44:35.945Z,4.30
2023-02-25T07:46:57.172Z,4.20
2023-02-25T07:49:19.831Z,3.47
2023-02-25T07:51:41.070Z,4.27
2023-02-25T07:54:02.354Z,4.30
2023-02-25T07:56:24.538Z,3.90
2023-02-25T07:58:45.837Z,6.40
2023-02-25T08:01:08.536Z,5.57
2023-02-25T08:03:29.704Z,6.20
2023-02-25T08:05:54.239Z,7.20
2023-02-25T08:08:15.435Z,3.10
2023-02-25T08:10:37.465Z,4.60
2023-02-25T08:12:58.715Z,3.60
2023-02-25T08:15:20.166Z,4.10
2023-02-25T08:17:41.409Z,4.77
2023-02-25T08:20:02.757Z,6.47
2023-02-25T08:22:25.632Z,4.50
2023-02-25T08:24:46.760Z,4.07
2023-02-25T08:27:08.372Z,4.83
2023-02-25T08:29:29.665Z,3.87
2023-02-25T08:31:51.820Z,3.50
2023-02-25T08:34:14.126Z,2.03
2023-02-25T08:36:36.191Z,2.10
2023-02-25T08:38:59.639Z,3.67
2023-02-25T08:41:21.913Z,4.33
2023-02-25T08:43:44.207Z,3.03
2023-02-25T08:46:06.379Z,4.20
2023-02-25T08:48:27.694Z,3.30
2023-02-25T08:50:48.845Z,8.40
2023-02-25T08:53:10.341Z,4.47
2023-02-25T08:55:35.369Z,4.90
2023-02-25T08:57:56.724Z,2.90
2023-02-25T09:00:18.397Z,2.03
2023-02-25T09:02:40.117Z,2.30
2023-02-25T09:05:01.456Z,2.63
2023-02-25T09:07:22.878Z,2.07
2023-02-25T09:09:44.117Z,3.27
2023-02-25T09:12:07.459Z,4.93
2023-02-25T09:14:29.095Z,3.53
2023-02-25T09:16:50.500Z,4.27
2023-02-25T09:19:12.655Z,2.80
2023-02-25T09:21:36.037Z,3.77
2023-02-25T09:23:58.304Z,4.30
2023-02-25T09:26:20.384Z,2.50
2023-02-25T09:28:43.122Z,3.23
2023-02-25T09:31:04.545Z,3.50
2023-02-25T09:33:25.970Z,4.60
2023-02-25T09:35:47.150Z,2.57
2023-02-25T09:38:08.465Z,5.93
2023-02-25T09:40:29.730Z,2.97
2023-02-25T09:42:54.929Z,4.73
2023-02-25T09:45:19.963Z,2.47
2023-02-25T09:47:43.957Z,3.00
2023-02-25T09:50:07.705Z,3.77
2023-02-25T09:52:31.818Z,1.93
2023-02-25T09:54:55.665Z,3.60
2023-02-25T09:57:19.101Z,2.17
2023-02-25T09:59:40.653Z,4.47
2023-02-25T10:02:08.053Z,2.33
2023-02-25T10:04:37.731Z,5.40
2023-02-25T10:07:00.194Z,4.97
2023-02-25T10:09:24.986Z,5.87
2023-02-25T10:11:51.050Z,5.70
2023-02-25T10:14:25.341Z,4.60
2023-02-25T10:16:51.513Z,5.07
2023-02-25T10:19:19.309Z,6.30
2023-02-25T10:21:48.841Z,4.73
2023-02-25T10:24:15.174Z,2.53
2023-02-25T10:26:39.034Z,4.13
2023-02-25T10:29:01.339Z,3.20
2023-02-25T10:31:24.148Z,5.00
2023-02-25T10:33:46.344Z,5.47
2023-02-25T10:36:11.402Z,3.17
2023-02-25T10:38:32.673Z,6.47
2023-02-25T10:40:56.773Z,3.67
2023-02-25T10:43:20.254Z,9.80
2023-02-25T10:45:41.428Z,3.13
2023-02-25T10:48:15.269Z,8.07
2023-02-25T10:50:45.659Z,2.97
2023-02-25T10:53:14.449Z,1.80
2023-02-25T10:55:51.470Z,1.83
2023-02-25T10:58:23.455Z,3.27
2023-02-25T11:00:45.550Z,2.00
2023-02-25T11:03:06.411Z,1.93
2023-02-25T11:05:32.122Z,1.33
2023-02-25T11:07:53.373Z,2.73
2023-02-25T11:10:17.843Z,1.57
2023-02-25T11:12:43.473Z,1.37
2023-02-25T11:15:18.213Z,1.83
2023-02-25T11:17:44.617Z,1.80
2023-02-25T11:20:06.831Z,1.87
2023-02-25T11:22:30.886Z,2.20
2023-02-25T11:24:57.562Z,1.60
2023-02-25T11:27:26.828Z,1.57
2023-02-25T11:29:50.948Z,1.70
2023-02-25T11:32:13.353Z,2.13
2023-02-25T11:34:38.235Z,1.60
2023-02-25T11:37:20.676Z,2.77
2023-02-25T11:39:52.488Z,2.33
2023-02-25T11:42:23.124Z,2.37
2023-02-25T11:44:44.994Z,3.50
2023-02-25T11:47:09.524Z,1.20
2023-02-25T11:49:40.214Z,1.70
2023-02-25T11:52:07.383Z,3.30
2023-02-25T11:54:31.245Z,1.70
2023-02-25T11:56:56.226Z,2.17
2023-02-25T11:59:29.193Z,2.27
2023-02-25T12:02:00.133Z,2.03
2023-02-25T12:04:35.364Z,2.63
2023-02-25T12:07:15.223Z,1.73
2023-02-25T12:09:46.761Z,1.67
2023-02-25T12:12:23.708Z,2.13
2023-02-25T12:15:02.923Z,1.70
2023-02-25T12:17:41.966Z,2.17
2023-02-25T12:20:20.841Z,1.80
2023-02-25T12:22:59.400Z,1.97
2023-02-25T12:25:30.805Z,2.53
2023-02-25T12:28:08.714Z,2.10
2023-02-25T12:30:49.908Z,2.13
2023-02-25T12:33:16.573Z,2.33
2023-02-25T12:35:49.681Z,2.33
2023-02-25T12:38:25.863Z,2.00
2023-02-25T12:41:01.770Z,2.03
2023-02-25T12:43:28.990Z,4.67
2023-02-25T12:46:01.960Z,4.97
2023-02-25T12:48:41.327Z,1.80
2023-02-25T12:51:09.894Z,3.43
2023-02-25T12:53:35.872Z,4.90
2023-02-25T12:56:15.315Z,2.50
2023-02-25T12:58:44.573Z,2.17
2023-02-25T13:01:11.118Z,2.13
2023-02-25T13:03:36.575Z,3.23
2023-02-25T13:06:04.024Z,2.67
2023-02-25T13:08:46.121Z,2.07
2023-02-25T13:11:14.181Z,2.13
2023-02-25T13:13:56.384Z,3.13
2023-02-25T13:16:24.094Z,3.33
2023-02-25T13:18:50.872Z,5.07
2023-02-25T13:21:20.099Z,4.63
2023-02-25T13:23:48.159Z,3.07
2023-02-25T13:26:28.783Z,3.63
2023-02-25T13:29:04.043Z,2.80
2023-02-25T13:31:32.121Z,2.97
2023-02-25T13:34:00.849Z,3.10
2023-02-25T13:36:30.025Z,4.07
2023-02-25T13:39:00.312Z,3.50
2023-02-25T13:41:31.469Z,5.93
2023-02-25T13:44:01.811Z,4.07
2023-02-25T13:46:43.963Z,5.80
2023-02-25T13:49:13.833Z,6.03
2023-02-25T13:51:42.877Z,4.43
2023-02-25T13:54:15.099Z,3.90
2023-02-25T13:57:06.749Z,4.17
2023-02-25T13:59:48.745Z,3.73
2023-02-25T14:02:32.716Z,3.23
2023-02-25T14:05:04.692Z,4.47
2023-02-25T14:07:43.638Z,4.77
2023-02-25T14:10:16.357Z,5.17
2023-02-25T14:12:44.426Z,5.30
2023-02-25T14:15:16.994Z,6.40
2023-02-25T14:17:47.141Z,6.33
2023-02-25T14:20:16.532Z,4.63
2023-02-25T14:22:41.311Z,3.90
2023-02-25T14:25:06.632Z,3.00
2023-02-25T14:27:31.338Z,2.53
2023-02-25T14:30:00.389Z,9.03
2023-02-25T14:32:26.448Z,6.47
2023-02-25T14:34:57.372Z,7.00
2023-02-25T14:37:26.956Z,4.73
2023-02-25T14:39:55.778Z,6.80
2023-02-25T14:42:26.701Z,7.03
2023-02-25T14:44:54.453Z,3.97
2023-02-25T14:47:16.835Z,2.47
2023-02-25T14:49:41.184Z,4.83
2023-02-25T14:52:14.617Z,3.13
2023-02-25T14:54:44.235Z,4.37
2023-02-25T14:57:13.682Z,3.70
2023-02-25T14:59:50.233Z,2.93
2023-02-25T15:02:32.315Z,2.67
2023-02-25T15:05:04.456Z,3.23
2023-02-25T15:07:38.728Z,4.10
2023-02-25T15:10:20.749Z,3.00
2023-02-25T15:12:53.946Z,4.27
2023-02-25T15:15:29.786Z,4.03
2023-02-25T15:18:09.992Z,3.47
2023-02-25T15:20:34.358Z,5.43
2023-02-25T15:23:06.877Z,2.33
2023-02-25T15:25:35.646Z,2.73
2023-02-25T15:27:57.118Z,3.07
2023-02-25T15:30:19.072Z,3.20
2023-02-25T15:32:56.090Z,7.30
2023-02-25T15:35:21.411Z,6.10
2023-02-25T15:37:57.658Z,6.93
2023-02-25T15:40:37.683Z,6.20
2023-02-25T15:43:00.325Z,4.07
2023-02-25T15:45:36.910Z,4.50
2023-02-25T15:48:25.035Z,4.13
2023-02-25T15:50:53.171Z,4.07
2023-02-25T15:53:37.219Z,5.30
2023-02-25T15:56:21.849Z,3.67
2023-02-25T15:58:46.119Z,3.03
2023-02-25T16:01:22.705Z,3.30
2023-02-25T16:03:44.433Z,2.63
2023-02-25T16:06:07.096Z,3.73
2023-02-25T16:08:29.624Z,3.57
2023-02-25T16:10:51.814Z,5.53
2023-02-25T16:13:15.317Z,4.53
2023-02-25T16:15:40.470Z,4.97
2023-02-25T16:18:05.925Z,4.40
2023-02-25T16:20:30.394Z,4.47
2023-02-25T16:22:55.135Z,4.13
2023-02-25T16:25:17.303Z,3.53
2023-02-25T16:27:46.799Z,5.30
2023-02-25T16:30:10.953Z,4.30
2023-02-25T16:32:38.198Z,4.80
2023-02-25T16:35:02.501Z,4.90
2023-02-25T16:37:27.928Z,3.03
2023-02-25T16:39:49.687Z,4.97
2023-02-25T16:42:12.664Z,5.47
2023-02-25T16:44:37.561Z,6.53
2023-02-25T16:47:00.111Z,7.00
2023-02-25T16:49:25.597Z,3.87
2023-02-25T16:51:46.976Z,6.27
2023-02-25T16:54:10.292Z,6.60
2023-02-25T16:56:32.487Z,4.63
2023-02-25T16:59:00.758Z,6.70
2023-02-25T17:01:23.202Z,5.67
2023-02-25T17:03:46.567Z,5.70
2023-02-25T17:06:15.552Z,4.47
2023-02-25T17:08:36.831Z,5.40
2023-02-25T17:10:58.975Z,8.43
2023-02-25T17:13:23.349Z,11.27
2023-02-25T17:15:44.928Z,13.53
2023-02-25T17:18:09.183Z,7.83
2023-02-25T17:20:31.034Z,9.80
2023-02-25T17:22:53.980Z,6.73
2023-02-25T17:25:16.762Z,10.43
2023-02-25T17:27:37.726Z,7.17
2023-02-25T17:29:59.058Z,5.53
2023-02-25T17:32:22.316Z,6.53
2023-02-25T17:34:43.302Z,7.17
2023-02-25T17:37:06.281Z,8.63
2023-02-25T17:39:29.743Z,8.73
2023-02-25T17:41:50.973Z,9.57
2023-02-25T17:44:12.377Z,10.10
2023-02-25T17:46:37.706Z,8.83
2023-02-25T17:49:00.142Z,12.93
2023-02-25T17:51:28.095Z,5.83
2023-02-25T17:53:50.165Z,7.37
2023-02-25T17:56:18.584Z,6.73
2023-02-25T17:58:39.994Z,11.00
2023-02-25T18:01:02.706Z,12.83
2023-02-25T18:03:25.255Z,4.60
2023-02-25T18:05:50.850Z,4.77
2023-02-25T18:08:19.823Z,5.07
2023-02-25T18:10:45.213Z,4.47
2023-02-25T18:13:19.358Z,4.03
2023-02-25T18:15:40.566Z,6.63
2023-02-25T18:18:02.709Z,4.10
2023-02-25T18:20:27.929Z,3.63
2023-02-25T18:22:49.284Z,4.40
2023-02-25T18:25:29.344Z,4.90
2023-02-25T18:27:53.794Z,4.07
2023-02-25T18:30:18.662Z,4.27
2023-02-25T18:32:39.991Z,2.70
2023-02-25T18:35:01.321Z,3.60
2023-02-25T18:37:22.644Z,4.73
2023-02-25T18:39:44.174Z,4.20
2023-02-25T18:42:05.866Z,4.00
2023-02-25T18:44:27.224Z,4.17
2023-02-25T18:46:50.098Z,4.03
2023-02-25T18:49:11.275Z,3.33
2023-02-25T18:51:32.573Z,3.87
2023-02-25T18:53:53.890Z,3.53
2023-02-25T18:56:17.522Z,4.53
2023-02-25T18:58:38.817Z,3.53
2023-02-25T19:01:00.534Z,4.80
2023-02-25T19:03:27.131Z,3.33
2023-02-25T19:05:48.521Z,3.43
2023-02-25T19:08:12.325Z,3.40
2023-02-25T19:10:34.222Z,3.20
2023-02-25T19:12:59.550Z,3.93
2023-02-25T19:15:22.374Z,3.37
2023-02-25T19:17:43.873Z,3.53
2023-02-25T19:20:07.231Z,3.83
2023-02-25T19:22:28.494Z,5.73
2023-02-25T19:24:50.054Z,4.00
2023-02-25T19:27:15.302Z,4.10
2023-02-25T19:29:36.575Z,4.63
2023-02-25T19:31:58.625Z,4.20
2023-02-25T19:34:20.014Z,5.43
2023-02-25T19:36:42.666Z,10.67
2023-02-25T19:39:05.460Z,4.73
2023-02-25T19:41:27.234Z,5.67
2023-02-25T19:43:48.490Z,7.27
2023-02-25T19:46:10.385Z,7.17
2023-02-25T19:48:31.670Z,7.57
2023-02-25T19:50:52.806Z,7.67
2023-02-25T19:53:16.055Z,8.13
2023-02-25T19:55:38.948Z,8.40
2023-02-25T19:58:00.212Z,12.73
2023-02-25T20:00:22.649Z,9.93
2023-02-25T20:02:43.999Z,8.90
2023-02-25T20:05:05.808Z,7.57
2023-02-25T20:07:27.518Z,8.50
2023-02-25T20:09:49.917Z,6.50
2023-02-25T20:12:11.249Z,8.27
2023-02-25T20:14:33.077Z,7.60
2023-02-25T20:16:54.349Z,6.47
2023-02-25T20:19:15.671Z,7.17
2023-02-25T20:21:36.985Z,8.07
2023-02-25T20:23:58.832Z,8.87
2023-02-25T20:26:24.263Z,9.13
2023-02-25T20:28:46.201Z,7.53
2023-02-25T20:31:08.761Z,8.30
2023-02-25T20:33:29.970Z,9.73
2023-02-25T20:35:51.299Z,8.53
2023-02-25T20:38:16.806Z,8.53
2023-02-25T20:40:37.880Z,8.73
2023-02-25T20:43:00.480Z,9.77
2023-02-25T20:45:22.037Z,12.23
2023-02-25T20:47:43.199Z,13.03
2023-02-25T20:50:05.603Z,13.00
2023-02-25T20:52:27.933Z,12.63
2023-02-25T20:54:49.762Z,11.13
2023-02-25T20:57:12.573Z,12.13
2023-02-25T20:59:35.107Z,13.10
2023-02-25T21:01:57.731Z,9.97
2023-02-25T21:04:20.022Z,16.40
2023-02-25T21:06:41.061Z,10.10
2023-02-25T21:09:02.661Z,9.93
2023-02-25T21:11:24.998Z,8.13
2023-02-25T21:13:46.815Z,10.17
2023-02-25T21:16:09.613Z,9.67
2023-02-25T21:18:30.997Z,10.23
2023-02-25T21:20:57.838Z,9.30
2023-02-25T21:23:18.821Z,9.63
2023-02-25T21:25:40.137Z,9.13
2023-02-25T21:28:01.895Z,8.33
2023-02-25T21:30:22.856Z,11.00
2023-02-25T21:32:45.541Z,7.93
2023-02-25T21:35:06.570Z,8.30
2023-02-25T21:37:27.999Z,6.57
2023-02-25T21:39:49.323Z,6.90
2023-02-25T21:42:10.560Z,7.53
2023-02-25T21:44:31.914Z,5.60
2023-02-25T21:46:53.135Z,9.20
2023-02-25T21:49:15.900Z,5.50
2023-02-25T21:51:37.205Z,5.80
2023-02-25T21:53:59.750Z,5.37
2023-02-25T21:56:21.073Z,6.00
2023-02-25T21:58:42.351Z,5.97
2023-02-25T22:01:10.963Z,4.93
2023-02-25T22:03:33.310Z,8.13
2023-02-25T22:05:55.946Z,5.23
2023-02-25T22:08:16.854Z,6.70
2023-02-25T22:10:39.922Z,6.37
2023-02-25T22:13:01.225Z,5.37
2023-02-25T22:15:22.523Z,5.53
2023-02-25T22:17:43.716Z,3.70
2023-02-25T22:20:05.621Z,3.90
2023-02-25T22:22:28.496Z,4.33
2023-02-25T22:24:49.521Z,4.10
2023-02-25T22:27:10.838Z,3.67
2023-02-25T22:29:32.013Z,9.93
2023-02-25T22:31:53.179Z,9.87
2023-02-25T22:34:14.742Z,4.03
2023-02-25T22:36:36.027Z,7.57
2023-02-25T22:38:58.719Z,11.20
2023-02-25T22:41:20.858Z,6.73
2023-02-25T22:43:42.302Z,3.63
2023-02-25T22:46:07.918Z,3.67
2023-02-25T22:48:29.128Z,3.70
2023-02-25T22:50:50.672Z,4.10
2023-02-25T22:53:11.574Z,5.80
2023-02-25T22:55:35.153Z,3.40
2023-02-25T22:57:56.193Z,3.63
2023-02-25T23:00:17.993Z,2.97
2023-02-25T23:02:39.474Z,3.37
2023-02-25T23:05:00.793Z,2.80
2023-02-25T23:07:22.585Z,3.00
2023-02-25T23:09:45.773Z,2.70
2023-02-25T23:12:08.282Z,2.87
2023-02-25T23:14:29.302Z,4.07
2023-02-25T23:16:51.295Z,3.00
2023-02-25T23:19:14.264Z,3.20
2023-02-25T23:21:38.455Z,2.63
2023-02-25T23:24:00.547Z,2.77
2023-02-25T23:26:22.466Z,3.00
2023-02-25T23:28:45.510Z,3.43
2023-02-25T23:31:07.633Z,2.80
2023-02-25T23:33:29.793Z,3.83
2023-02-25T23:35:52.175Z,2.70
2023-02-25T23:38:13.275Z,3.53
2023-02-25T23:40:34.730Z,3.80
2023-02-25T23:42:55.935Z,3.37
2023-02-25T23:45:18.696Z,3.07
2023-02-25T23:47:42.673Z,3.17
2023-02-25T23:50:03.940Z,2.70
2023-02-25T23:52:25.328Z,3.33
2023-02-25T23:54:46.654Z,2.90
2023-02-25T23:57:07.963Z,4.33
2023-02-25T23:59:29.205Z,2.90
